createdAt,value
2018-01-13T00:02:26.001Z,19.02
2018-01-13T00:04:53.469Z,21.70
2018-01-13T00:07:21.731Z,19.62
2018-01-13T00:09:49.206Z,19.23
2018-01-13T00:12:17.468Z,24.37
2018-01-13T00:14:45.714Z,22.65
2018-01-13T00:17:13.208Z,21.25
2018-01-13T00:19:40.737Z,19.98
2018-01-13T00:22:08.238Z,21.40
2018-01-13T00:24:36.513Z,22.23
2018-01-13T00:27:04.733Z,22.10
2018-01-13T00:29:32.205Z,20.40
2018-01-13T00:31:59.701Z,23.00
2018-01-13T00:34:27.958Z,22.15
2018-01-13T00:36:55.464Z,23.20
2018-01-13T00:39:22.937Z,22.55
2018-01-13T00:41:50.432Z,21.12
2018-01-13T00:44:19.484Z,23.02
2018-01-13T00:46:46.945Z,23.10
2018-01-13T00:49:14.469Z,21.87
2018-01-13T00:51:42.707Z,24.50
2018-01-13T00:54:10.184Z,24.15
2018-01-13T00:56:37.654Z,24.23
2018-01-13T00:59:05.918Z,24.25
2018-01-13T01:01:33.442Z,22.85
2018-01-13T01:04:00.912Z,23.55
2018-01-13T01:06:28.422Z,24.15
2018-01-13T01:08:55.906Z,25.05
2018-01-13T01:11:23.379Z,23.25
2018-01-13T01:13:50.871Z,23.33
2018-01-13T01:16:18.333Z,22.87
2018-01-13T01:18:45.813Z,24.40
2018-01-13T01:21:14.063Z,25.10
2018-01-13T01:23:41.549Z,22.75
2018-01-13T01:26:09.803Z,23.30
2018-01-13T01:28:37.275Z,23.38
2018-01-13T01:31:05.519Z,23.17
2018-01-13T01:33:33.014Z,24.37
2018-01-13T01:36:01.265Z,24.15
2018-01-13T01:38:28.742Z,23.92
2018-01-13T01:40:57.011Z,23.12
2018-01-13T01:43:24.465Z,21.35
2018-01-13T01:45:51.982Z,21.48
2018-01-13T01:48:26.015Z,22.35
2018-01-13T01:50:53.491Z,20.42
2018-01-13T01:53:20.978Z,22.95
2018-01-13T01:55:49.231Z,22.30
2018-01-13T01:58:16.723Z,23.00
2018-01-13T02:00:44.198Z,23.60
2018-01-13T02:03:11.702Z,21.48
2018-01-13T02:05:39.187Z,20.80
2018-01-13T02:08:07.418Z,22.40
2018-01-13T02:10:34.922Z,21.42
2018-01-13T02:13:03.150Z,20.35
2018-01-13T02:15:30.666Z,20.75
2018-01-13T02:17:58.884Z,21.20
2018-01-13T02:20:26.367Z,21.20
2018-01-13T02:22:54.627Z,18.25
2018-01-13T02:25:22.094Z,16.77
2018-01-13T02:27:49.612Z,20.35
2018-01-13T02:30:17.079Z,19.45
2018-01-13T02:32:44.538Z,21.05
2018-01-13T02:35:12.018Z,20.02
2018-01-13T02:37:39.485Z,20.10
2018-01-13T02:40:07.890Z,19.37
2018-01-13T02:42:36.125Z,20.77
2018-01-13T02:45:03.610Z,17.30
2018-01-13T02:47:31.088Z,17.75
2018-01-13T02:49:59.329Z,16.48
2018-01-13T02:52:26.813Z,16.35
2018-01-13T02:54:55.061Z,18.48
2018-01-13T02:57:22.549Z,17.65
2018-01-13T02:59:50.811Z,16.70
2018-01-13T03:02:18.293Z,18.33
2018-01-13T03:04:46.544Z,18.42
2018-01-13T03:07:13.998Z,16.75
2018-01-13T03:09:41.488Z,16.45
2018-01-13T03:12:09.750Z,17.45
2018-01-13T03:14:37.279Z,14.75
2018-01-13T03:17:04.781Z,17.70
2018-01-13T03:19:33.013Z,16.95
2018-01-13T03:22:00.471Z,17.73
2018-01-13T03:24:27.978Z,16.62
2018-01-13T03:26:56.217Z,16.08
2018-01-13T03:29:23.698Z,15.40
2018-01-13T03:31:51.966Z,13.40
2018-01-13T03:34:19.430Z,16.60
2018-01-13T03:36:47.653Z,15.43
2018-01-13T03:39:15.163Z,16.05
2018-01-13T03:41:42.638Z,16.40
2018-01-13T03:44:10.897Z,14.60
2018-01-13T03:46:38.359Z,13.70
2018-01-13T03:49:06.633Z,14.63
2018-01-13T03:51:34.879Z,16.80
2018-01-13T03:54:02.338Z,15.38
2018-01-13T03:56:29.846Z,12.95
2018-01-13T03:58:58.061Z,13.75
2018-01-13T04:01:25.571Z,15.25
2018-01-13T04:03:53.820Z,14.90
2018-01-13T04:06:21.308Z,13.90
2018-01-13T04:08:49.568Z,14.52
2018-01-13T04:11:17.034Z,14.00
2018-01-13T04:13:45.306Z,13.68
2018-01-13T04:16:12.765Z,15.40
2018-01-13T04:18:40.252Z,13.82
2018-01-13T04:21:07.738Z,15.95
2018-01-13T04:23:35.238Z,15.05
2018-01-13T04:26:02.753Z,14.27
2018-01-13T04:28:30.219Z,15.48
2018-01-13T04:30:57.691Z,14.75
2018-01-13T04:33:25.195Z,15.10
2018-01-13T04:35:52.672Z,17.40
2018-01-13T04:38:20.180Z,14.63
2018-01-13T04:40:47.645Z,15.27
2018-01-13T04:43:15.118Z,13.70
2018-01-13T04:45:42.913Z,15.77
2018-01-13T04:48:10.375Z,16.95
2018-01-13T04:50:37.901Z,16.65
2018-01-13T04:53:06.127Z,14.25
2018-01-13T04:55:33.608Z,15.95
2018-01-13T04:58:01.093Z,14.35
2018-01-13T05:00:29.336Z,15.38
2018-01-13T05:02:56.827Z,16.60
2018-01-13T05:05:24.293Z,16.58
2018-01-13T05:07:52.555Z,16.83
2018-01-13T05:10:20.042Z,14.82
2018-01-13T05:12:47.499Z,12.80
2018-01-13T05:15:14.971Z,13.55
2018-01-13T05:17:42.470Z,13.23
2018-01-13T05:20:09.961Z,13.98
2018-01-13T05:22:38.206Z,14.70
2018-01-13T05:25:05.709Z,14.70
2018-01-13T05:27:33.972Z,14.15
2018-01-13T05:30:02.207Z,15.02
2018-01-13T05:32:29.705Z,16.37
2018-01-13T05:34:57.953Z,14.48
2018-01-13T05:37:25.430Z,15.98
2018-01-13T05:39:52.941Z,15.30
2018-01-13T05:42:20.417Z,16.10
2018-01-13T05:44:47.929Z,15.23
2018-01-13T05:47:15.414Z,15.02
2018-01-13T05:49:42.922Z,15.75
2018-01-13T05:52:10.408Z,14.70
2018-01-13T05:54:38.625Z,15.75
2018-01-13T05:57:06.124Z,14.68
2018-01-13T05:59:34.349Z,16.12
2018-01-13T06:02:01.851Z,16.27
2018-01-13T06:04:29.359Z,17.35
2018-01-13T06:06:56.851Z,15.43
2018-01-13T06:09:24.309Z,16.35
2018-01-13T06:11:51.794Z,16.92
2018-01-13T06:14:20.058Z,16.20
2018-01-13T06:16:47.519Z,17.77
2018-01-13T06:19:15.050Z,16.17
2018-01-13T06:21:42.521Z,17.67
2018-01-13T06:24:09.999Z,17.48
2018-01-13T06:26:37.500Z,18.17
2018-01-13T06:29:05.007Z,17.35
2018-01-13T06:31:33.997Z,18.50
2018-01-13T06:34:01.493Z,19.02
2018-01-13T06:36:29.758Z,18.70
2018-01-13T06:38:58.006Z,18.65
2018-01-13T06:41:26.258Z,20.33
2018-01-13T06:43:53.749Z,21.50
2018-01-13T06:46:21.222Z,18.83
2018-01-13T06:48:49.493Z,18.85
2018-01-13T06:51:17.730Z,20.25
2018-01-13T06:53:45.181Z,20.90
2018-01-13T06:56:12.683Z,19.90
2018-01-13T06:58:40.141Z,19.35
2018-01-13T07:01:08.419Z,21.65
2018-01-13T07:03:37.381Z,22.33
2018-01-13T07:06:04.882Z,20.50
2018-01-13T07:08:33.121Z,21.98
2018-01-13T07:11:00.608Z,20.92
2018-01-13T07:13:28.106Z,21.87
2018-01-13T07:15:55.580Z,21.60
2018-01-13T07:18:23.082Z,20.45
2018-01-13T07:20:50.550Z,20.65
2018-01-13T07:23:18.809Z,23.67
2018-01-13T07:25:46.345Z,21.23
2018-01-13T07:28:13.830Z,22.40
2018-01-13T07:30:41.346Z,22.80
2018-01-13T07:33:08.806Z,23.98
2018-01-13T07:35:36.290Z,22.02
2018-01-13T07:38:03.804Z,23.90
2018-01-13T07:40:31.309Z,22.62
2018-01-13T07:42:58.810Z,21.12
2018-01-13T07:45:26.297Z,24.45
2018-01-13T07:47:53.814Z,22.70
2018-01-13T07:50:22.078Z,23.67
2018-01-13T07:52:49.549Z,24.33
2018-01-13T07:55:17.766Z,22.98
2018-01-13T07:57:45.286Z,27.17
2018-01-13T08:00:13.596Z,23.20
2018-01-13T08:02:41.094Z,21.35
2018-01-13T08:05:08.559Z,21.02
2018-01-13T08:07:36.041Z,20.20
2018-01-13T08:10:04.299Z,21.08
2018-01-13T08:12:31.780Z,21.95
2018-01-13T08:15:00.068Z,20.77
2018-01-13T08:17:27.560Z,23.10
2018-01-13T08:19:55.014Z,22.10
2018-01-13T08:22:22.550Z,21.25
2018-01-13T08:24:50.057Z,22.90
2018-01-13T08:27:17.520Z,21.40
2018-01-13T08:29:45.253Z,20.58
2018-01-13T08:32:12.748Z,24.05
2018-01-13T08:34:40.207Z,23.52
2018-01-13T08:37:07.705Z,21.27
2018-01-13T08:39:35.188Z,21.37
2018-01-13T08:42:02.699Z,22.20
2018-01-13T08:44:30.157Z,20.58
2018-01-13T08:46:58.429Z,20.10
2018-01-13T08:49:26.678Z,19.70
2018-01-13T08:51:54.161Z,22.10
2018-01-13T08:54:21.640Z,22.35
2018-01-13T08:56:49.901Z,20.55
2018-01-13T08:59:18.126Z,20.23
2018-01-13T09:01:45.670Z,18.73
2018-01-13T09:04:13.169Z,19.95
2018-01-13T09:06:40.642Z,20.35
2018-01-13T09:09:08.149Z,19.50
2018-01-13T09:11:35.616Z,20.08
2018-01-13T09:14:03.112Z,21.02
2018-01-13T09:16:30.581Z,19.85
2018-01-13T09:18:58.145Z,19.05
2018-01-13T09:21:25.589Z,22.15
2018-01-13T09:23:53.069Z,20.45
2018-01-13T09:26:21.370Z,21.92
2018-01-13T09:28:48.846Z,17.70
2018-01-13T09:31:16.378Z,21.48
2018-01-13T09:33:44.637Z,18.87
2018-01-13T09:36:12.866Z,19.48
2018-01-13T09:38:40.353Z,18.50
2018-01-13T09:41:07.858Z,19.48
2018-01-13T09:43:35.358Z,19.05
2018-01-13T09:46:02.833Z,18.77
2018-01-13T09:48:30.362Z,20.30
2018-01-13T09:50:57.859Z,20.37
2018-01-13T09:53:25.355Z,18.48
2018-01-13T09:55:52.860Z,19.95
2018-01-13T09:58:20.354Z,18.73
2018-01-13T10:00:48.629Z,18.90
2018-01-13T10:03:16.900Z,21.27
2018-01-13T10:05:45.212Z,18.60
2018-01-13T10:08:12.701Z,18.15
2018-01-13T10:10:40.178Z,21.90
2018-01-13T10:13:07.692Z,18.95
2018-01-13T10:15:35.158Z,16.90
2018-01-13T10:18:02.678Z,17.52
2018-01-13T10:20:30.914Z,17.20
2018-01-13T10:22:58.416Z,17.30
2018-01-13T10:25:26.657Z,18.83
2018-01-13T10:27:54.232Z,18.23
2018-01-13T10:30:21.696Z,16.98
2018-01-13T10:32:49.934Z,19.37
2018-01-13T10:35:17.446Z,19.15
2018-01-13T10:37:45.821Z,17.90
2018-01-13T10:40:14.141Z,19.25
2018-01-13T10:42:41.604Z,16.92
2018-01-13T10:45:09.077Z,17.37
2018-01-13T10:47:36.596Z,16.55
2018-01-13T10:50:04.063Z,16.85
2018-01-13T10:52:31.540Z,17.70
2018-01-13T10:54:59.255Z,17.40
2018-01-13T10:57:27.533Z,17.35
2018-01-13T10:59:55.822Z,18.05
2018-01-13T11:02:24.055Z,17.83
2018-01-13T11:04:51.548Z,16.50
2018-01-13T11:07:19.810Z,17.73
2018-01-13T11:09:47.280Z,17.48
2018-01-13T11:12:15.586Z,18.05
2018-01-13T11:14:43.070Z,18.12
2018-01-13T11:17:10.530Z,18.80
2018-01-13T11:19:38.064Z,19.35
2018-01-13T11:22:05.569Z,18.70
2018-01-13T11:24:33.099Z,17.95
2018-01-13T11:27:00.604Z,18.95
2018-01-13T11:29:28.874Z,19.15
2018-01-13T11:31:57.114Z,18.12
2018-01-13T11:34:24.594Z,21.33
2018-01-13T11:36:52.090Z,20.25
2018-01-13T11:39:20.318Z,19.37
2018-01-13T11:41:47.806Z,21.27
2018-01-13T11:44:16.027Z,18.65
2018-01-13T11:46:43.556Z,19.45
2018-01-13T11:49:11.042Z,21.40
2018-01-13T11:51:38.521Z,19.02
2018-01-13T11:54:06.007Z,19.35
2018-01-13T11:56:33.509Z,20.23
2018-01-13T11:59:01.022Z,20.83
2018-01-13T12:01:28.521Z,18.87
2018-01-13T12:03:56.032Z,20.42
2018-01-13T12:06:23.554Z,19.95
2018-01-13T12:08:51.017Z,19.98
2018-01-13T12:11:18.515Z,19.73
2018-01-13T12:13:46.007Z,18.10
2018-01-13T12:16:14.234Z,17.10
2018-01-13T12:18:41.766Z,17.77
2018-01-13T12:21:09.247Z,18.48
2018-01-13T12:23:36.770Z,17.02
2018-01-13T12:26:04.251Z,19.80
2018-01-13T12:28:31.754Z,19.20
2018-01-13T12:30:59.294Z,17.87
2018-01-13T12:33:26.734Z,19.87
2018-01-13T12:35:54.287Z,19.48
2018-01-13T12:38:21.766Z,20.05
2018-01-13T12:40:49.284Z,16.70
2018-01-13T12:43:16.746Z,18.05
2018-01-13T12:45:44.210Z,18.12
2018-01-13T12:48:11.715Z,18.10
2018-01-13T12:50:39.227Z,18.45
2018-01-13T12:53:06.744Z,17.67
2018-01-13T12:55:34.236Z,18.25
2018-01-13T12:58:01.734Z,18.55
2018-01-13T13:00:29.254Z,18.50
2018-01-13T13:02:56.722Z,19.40
2018-01-13T13:05:24.318Z,18.25
2018-01-13T13:07:51.779Z,22.27
2018-01-13T13:10:19.269Z,18.75
2018-01-13T13:12:47.546Z,20.20
2018-01-13T13:15:15.787Z,20.33
2018-01-13T13:17:43.300Z,20.37
2018-01-13T13:20:10.766Z,19.10
2018-01-13T13:22:38.258Z,17.95
2018-01-13T13:25:05.750Z,20.10
2018-01-13T13:27:33.991Z,19.20
2018-01-13T13:30:01.474Z,20.30
2018-01-13T13:32:29.770Z,20.73
2018-01-13T13:34:58.017Z,19.52
2018-01-13T13:37:25.508Z,22.70
2018-01-13T13:39:53.820Z,23.00
2018-01-13T13:42:21.287Z,23.15
2018-01-13T13:44:48.799Z,21.30
2018-01-13T13:47:16.282Z,21.62
2018-01-13T13:49:43.748Z,22.00
2018-01-13T13:52:11.240Z,19.80
2018-01-13T13:54:38.714Z,21.80
2018-01-13T13:57:06.176Z,22.30
2018-01-13T13:59:34.503Z,21.80
2018-01-13T14:02:02.068Z,21.10
2018-01-13T14:04:29.566Z,21.75
2018-01-13T14:06:57.035Z,19.95
2018-01-13T14:09:25.317Z,21.58
2018-01-13T14:11:53.571Z,21.65
2018-01-13T14:14:21.070Z,23.95
2018-01-13T14:16:50.116Z,26.25
2018-01-13T14:19:17.568Z,22.62
2018-01-13T14:21:45.070Z,22.20
2018-01-13T14:24:13.337Z,21.80
2018-01-13T14:26:40.811Z,29.55
2018-01-13T14:29:09.722Z,22.83
2018-01-13T14:31:37.184Z,21.87
2018-01-13T14:34:04.909Z,22.50
2018-01-13T14:36:33.214Z,23.92
2018-01-13T14:39:00.681Z,23.30
2018-01-13T14:41:28.145Z,22.95
2018-01-13T14:43:55.654Z,24.33
2018-01-13T14:46:23.117Z,24.52
2018-01-13T14:48:51.373Z,24.63
2018-01-13T14:51:18.875Z,24.58
2018-01-13T14:53:46.397Z,22.55
2018-01-13T14:56:13.906Z,22.95
2018-01-13T14:58:41.513Z,23.10
2018-01-13T15:01:09.059Z,24.50
2018-01-13T15:03:36.569Z,24.02
2018-01-13T15:06:04.822Z,21.67
2018-01-13T15:08:32.327Z,24.20
2018-01-13T15:10:59.815Z,20.65
2018-01-13T15:13:27.274Z,20.95
2018-01-13T15:15:54.781Z,23.65
2018-01-13T15:18:23.021Z,21.92
2018-01-13T15:20:50.526Z,24.35
2018-01-13T15:23:17.981Z,23.30
2018-01-13T15:25:45.484Z,22.30
2018-01-13T15:28:12.986Z,23.80
2018-01-13T15:30:41.258Z,22.48
2018-01-13T15:33:09.535Z,24.65
2018-01-13T15:35:38.401Z,23.05
2018-01-13T15:38:06.338Z,24.80
2018-01-13T15:40:33.828Z,26.75
2018-01-13T15:43:01.299Z,26.15
2018-01-13T15:45:29.575Z,26.02
2018-01-13T15:47:57.842Z,27.08
2018-01-13T15:50:26.177Z,31.77
2018-01-13T15:52:54.401Z,23.90
2018-01-13T15:55:48.226Z,25.27
2018-01-13T15:58:15.735Z,26.92
2018-01-13T16:00:43.229Z,26.23
2018-01-13T16:03:10.721Z,25.85
2018-01-13T16:05:38.205Z,28.12
2018-01-13T16:08:05.677Z,26.80
2018-01-13T16:10:33.194Z,27.52
2018-01-13T16:13:00.715Z,27.17
2018-01-13T16:15:28.966Z,27.65
2018-01-13T16:17:56.508Z,27.10
2018-01-13T16:20:24.003Z,26.55
2018-01-13T16:22:52.237Z,28.70
2018-01-13T16:25:19.714Z,27.40
2018-01-13T16:27:48.685Z,26.62
2018-01-13T16:30:16.186Z,27.52
2018-01-13T16:32:44.470Z,27.75
2018-01-13T16:35:12.708Z,26.27
2018-01-13T16:37:40.230Z,27.40
2018-01-13T16:40:07.718Z,28.52
2018-01-13T16:42:35.200Z,26.42
2018-01-13T16:45:02.702Z,29.50
2018-01-13T16:47:30.220Z,26.08
2018-01-13T16:49:58.481Z,27.77
2018-01-13T16:52:25.997Z,27.42
2018-01-13T16:54:53.481Z,29.58
2018-01-13T16:57:20.954Z,28.85
2018-01-13T16:59:48.417Z,27.73
2018-01-13T17:02:15.910Z,32.88
2018-01-13T17:04:44.162Z,29.60
2018-01-13T17:07:11.637Z,28.87
2018-01-13T17:09:39.914Z,27.58
2018-01-13T17:12:07.407Z,28.85
2018-01-13T17:14:34.858Z,28.48
2018-01-13T17:17:02.359Z,26.80
2018-01-13T17:19:29.875Z,28.75
2018-01-13T17:21:57.358Z,27.20
2018-01-13T17:24:24.838Z,26.33
2018-01-13T17:26:52.320Z,28.08
2018-01-13T17:29:20.593Z,29.10
2018-01-13T17:31:48.110Z,26.67
2018-01-13T17:34:15.579Z,25.15
2018-01-13T17:36:43.054Z,27.33
2018-01-13T17:39:10.561Z,26.00
2018-01-13T17:41:38.090Z,26.75
2018-01-13T17:44:05.585Z,27.08
2018-01-13T17:46:33.078Z,27.35
2018-01-13T17:49:00.590Z,26.15
2018-01-13T17:51:28.050Z,24.35
2018-01-13T17:53:55.530Z,26.75
2018-01-13T17:56:23.309Z,26.65
2018-01-13T17:58:50.807Z,27.13
2018-01-13T18:01:19.811Z,25.95
2018-01-13T18:03:48.057Z,27.27
2018-01-13T18:06:15.569Z,25.73
2018-01-13T18:08:43.136Z,26.33
2018-01-13T18:11:10.628Z,25.52
2018-01-13T18:13:38.083Z,27.25
2018-01-13T18:16:05.571Z,26.15
2018-01-13T18:18:33.698Z,27.00
2018-01-13T18:21:01.187Z,27.20
2018-01-13T18:23:28.698Z,26.65
2018-01-13T18:25:56.200Z,26.62
2018-01-13T18:28:23.670Z,28.08
2018-01-13T18:30:51.166Z,26.27
2018-01-13T18:33:18.695Z,25.35
2018-01-13T18:35:46.967Z,23.70
2018-01-13T18:38:14.442Z,20.27
2018-01-13T18:40:42.733Z,21.75
2018-01-13T18:43:10.980Z,22.15
2018-01-13T18:45:38.435Z,22.45
2018-01-13T18:48:05.960Z,23.60
2018-01-13T18:50:33.473Z,21.80
2018-01-13T18:53:01.755Z,24.48
2018-01-13T18:55:30.025Z,23.23
2018-01-13T18:57:58.265Z,23.77
2018-01-13T19:00:25.755Z,25.88
2018-01-13T19:02:54.000Z,24.55
2018-01-13T19:05:21.494Z,25.15
2018-01-13T19:07:49.722Z,22.70
2018-01-13T19:10:17.199Z,24.08
2018-01-13T19:12:44.711Z,21.25
2018-01-13T19:15:12.241Z,22.73
2018-01-13T19:17:40.480Z,21.65
2018-01-13T19:20:08.003Z,23.45
2018-01-13T19:22:36.270Z,24.80
2018-01-13T19:25:04.510Z,24.30
2018-01-13T19:27:32.025Z,22.67
2018-01-13T19:29:59.528Z,24.50
2018-01-13T19:32:26.994Z,24.87
2018-01-13T19:34:54.474Z,24.35
2018-01-13T19:37:22.710Z,23.00
2018-01-13T19:39:50.223Z,23.20
2018-01-13T19:42:17.804Z,21.20
2018-01-13T19:44:45.290Z,23.30
2018-01-13T19:47:12.790Z,22.35
2018-01-13T19:49:41.069Z,22.45
2018-01-13T19:52:09.326Z,23.27
2018-01-13T19:54:37.577Z,25.85
2018-01-13T19:57:05.067Z,26.20
2018-01-13T19:59:33.318Z,23.45
2018-01-13T20:02:00.794Z,23.92
2018-01-13T20:04:28.300Z,20.35
2018-01-13T20:06:55.793Z,22.10
2018-01-13T20:09:23.288Z,24.50
2018-01-13T20:11:51.521Z,21.05
2018-01-13T20:14:19.014Z,22.92
2018-01-13T20:16:47.253Z,23.58
2018-01-13T20:19:14.714Z,21.60
2018-01-13T20:21:42.239Z,24.37
2018-01-13T20:24:09.719Z,22.13
2018-01-13T20:26:37.178Z,23.50
2018-01-13T20:29:04.658Z,21.95
2018-01-13T20:31:32.161Z,22.40
2018-01-13T20:33:59.675Z,23.67
2018-01-13T20:36:27.140Z,23.38
2018-01-13T20:38:54.631Z,23.10
2018-01-13T20:41:22.881Z,24.37
2018-01-13T20:43:50.998Z,21.62
2018-01-13T20:46:18.493Z,21.20
2018-01-13T20:48:45.970Z,24.25
2018-01-13T20:51:14.263Z,24.73
2018-01-13T20:53:42.510Z,20.88
2018-01-13T20:56:09.989Z,22.52
2018-01-13T20:58:37.482Z,23.83
2018-01-13T21:01:04.953Z,22.83
2018-01-13T21:03:32.462Z,20.50
2018-01-13T21:05:59.930Z,21.37
2018-01-13T21:08:27.450Z,19.98
2018-01-13T21:10:54.945Z,22.10
2018-01-13T21:13:23.167Z,21.67
2018-01-13T21:15:50.621Z,22.60
2018-01-13T21:18:18.162Z,20.23
2018-01-13T21:20:46.382Z,20.70
2018-01-13T21:23:13.873Z,19.52
2018-01-13T21:25:42.210Z,22.40
2018-01-13T21:28:09.673Z,18.00
2018-01-13T21:30:37.210Z,17.85
2018-01-13T21:33:04.694Z,18.05
2018-01-13T21:35:32.184Z,18.08
2018-01-13T21:38:00.435Z,16.65
2018-01-13T21:40:27.906Z,18.95
2018-01-13T21:42:55.434Z,20.95
2018-01-13T21:45:22.930Z,19.75
2018-01-13T21:47:50.429Z,20.45
2018-01-13T21:50:17.887Z,19.65
2018-01-13T21:52:45.378Z,19.95
2018-01-13T21:55:12.876Z,20.15
2018-01-13T21:57:40.344Z,20.48
2018-01-13T22:00:08.589Z,21.42
2018-01-13T22:02:37.578Z,19.42
2018-01-13T22:05:05.057Z,17.62
2018-01-13T22:07:33.337Z,16.73
2018-01-13T22:10:01.592Z,16.92
2018-01-13T22:12:29.064Z,18.10
2018-01-13T22:14:56.614Z,20.33
2018-01-13T22:17:24.112Z,20.58
2018-01-13T22:19:52.381Z,23.80
2018-01-13T22:22:20.617Z,24.10
2018-01-13T22:24:48.139Z,24.63
2018-01-13T22:27:15.598Z,22.27
2018-01-13T22:29:43.068Z,25.05
2018-01-13T22:32:10.572Z,24.02
2018-01-13T22:34:38.030Z,23.20
2018-01-13T22:37:05.494Z,25.40
2018-01-13T22:39:34.387Z,22.60
2018-01-13T22:42:02.617Z,22.70
2018-01-13T22:44:30.093Z,23.65
2018-01-13T22:46:57.617Z,23.58
2018-01-13T22:49:25.094Z,23.12
2018-01-13T22:51:52.581Z,22.70
2018-01-13T22:54:20.046Z,21.73
2018-01-13T22:56:47.561Z,22.60
2018-01-13T22:59:15.018Z,21.62
2018-01-13T23:01:42.557Z,20.52
2018-01-13T23:04:10.005Z,19.33
2018-01-13T23:06:37.473Z,19.58
2018-01-13T23:09:04.973Z,20.37
2018-01-13T23:11:32.482Z,20.98
2018-01-13T23:13:59.970Z,20.73
2018-01-13T23:16:27.427Z,21.90
2018-01-13T23:18:54.979Z,21.98
2018-01-13T23:21:22.382Z,23.23
2018-01-13T23:23:49.903Z,21.35
2018-01-13T23:26:17.357Z,25.00
2018-01-13T23:28:44.854Z,23.48
2018-01-13T23:31:12.350Z,22.85
2018-01-13T23:33:39.839Z,25.80
2018-01-13T23:36:07.334Z,23.58
2018-01-13T23:38:34.810Z,26.30
2018-01-13T23:41:03.081Z,22.58
2018-01-13T23:43:30.591Z,22.30
2018-01-13T23:45:58.058Z,26.00
2018-01-13T23:48:25.558Z,25.95
2018-01-13T23:50:53.030Z,26.08
2018-01-13T23:53:21.317Z,23.95
2018-01-13T23:55:49.548Z,25.17
2018-01-13T23:58:17.013Z,23.27
